createdAt,value
2017-10-02T00:00:37.614Z,73.50
2017-10-02T00:01:37.572Z,75.00
2017-10-02T00:02:37.534Z,69.30
2017-10-02T00:03:37.506Z,73.60
2017-10-02T00:04:37.469Z,76.10
2017-10-02T00:05:37.439Z,80.20
2017-10-02T00:06:37.407Z,79.30
2017-10-02T00:07:37.360Z,85.80
2017-10-02T00:08:37.321Z,79.20
2017-10-02T00:09:37.283Z,77.30
2017-10-02T00:10:37.250Z,80.60
2017-10-02T00:11:37.222Z,81.30
2017-10-02T00:12:37.190Z,79.60
2017-10-02T00:13:37.142Z,77.00
2017-10-02T00:14:37.105Z,76.40
2017-10-02T00:15:37.070Z,88.50
2017-10-02T00:16:37.032Z,85.30
2017-10-02T00:17:37.004Z,76.40
2017-10-02T00:18:36.960Z,75.40
2017-10-02T00:19:36.936Z,80.20
2017-10-02T00:20:36.888Z,84.70
2017-10-02T00:21:36.849Z,84.00
2017-10-02T00:22:36.815Z,83.40
2017-10-02T00:23:36.779Z,78.00
2017-10-02T00:24:36.747Z,79.50
2017-10-02T00:25:36.715Z,74.70
2017-10-02T00:26:36.680Z,70.80
2017-10-02T00:27:36.657Z,73.40
2017-10-02T00:28:36.615Z,71.30
2017-10-02T00:29:36.597Z,78.90
2017-10-02T00:30:36.526Z,77.10
2017-10-02T00:31:36.508Z,73.00
2017-10-02T00:32:36.457Z,72.50
2017-10-02T00:33:36.419Z,72.50
2017-10-02T00:34:36.396Z,72.90
2017-10-02T00:35:36.343Z,72.90
2017-10-02T00:36:36.307Z,79.40
2017-10-02T00:37:36.272Z,74.60
2017-10-02T00:38:36.239Z,81.30
2017-10-02T00:39:36.256Z,77.80
2017-10-02T00:40:36.165Z,83.20
2017-10-02T00:41:36.136Z,90.60
2017-10-02T00:42:36.101Z,82.90
2017-10-02T00:43:36.063Z,81.00
2017-10-02T00:44:36.023Z,83.80
2017-10-02T00:45:35.983Z,75.20
2017-10-02T00:46:35.948Z,79.50
2017-10-02T00:47:35.917Z,83.60
2017-10-02T00:48:35.878Z,85.40
2017-10-02T00:49:35.838Z,80.60
2017-10-02T00:50:35.801Z,81.90
2017-10-02T00:51:35.763Z,81.20
2017-10-02T00:52:35.734Z,81.60
2017-10-02T00:53:35.691Z,79.30
2017-10-02T00:54:35.658Z,79.80
2017-10-02T00:55:35.630Z,75.70
2017-10-02T00:56:35.584Z,79.10
2017-10-02T00:57:35.549Z,77.50
2017-10-02T00:58:35.512Z,81.10
2017-10-02T00:59:35.477Z,72.40
2017-10-02T01:00:35.438Z,76.20
2017-10-02T01:01:35.402Z,79.20
2017-10-02T01:02:35.367Z,79.00
2017-10-02T01:03:35.332Z,76.20
2017-10-02T01:04:35.290Z,83.50
2017-10-02T01:05:35.258Z,81.40
2017-10-02T01:06:35.217Z,84.30
2017-10-02T01:07:35.184Z,95.00
2017-10-02T01:08:35.146Z,89.40
2017-10-02T01:09:35.108Z,93.70
2017-10-02T01:10:35.075Z,85.70
2017-10-02T01:11:35.038Z,94.80
2017-10-02T01:12:35.003Z,92.40
2017-10-02T01:13:34.964Z,85.40
2017-10-02T01:14:34.929Z,87.00
2017-10-02T01:15:34.890Z,86.40
2017-10-02T01:16:34.863Z,92.10
2017-10-02T01:17:34.819Z,96.60
2017-10-02T01:18:34.780Z,85.10
2017-10-02T01:19:34.747Z,92.30
2017-10-02T01:20:34.712Z,91.90
2017-10-02T01:21:34.674Z,87.20
2017-10-02T01:22:34.641Z,94.40
2017-10-02T01:23:34.609Z,98.40
2017-10-02T01:24:34.566Z,81.80
2017-10-02T01:25:34.526Z,87.50
2017-10-02T01:26:34.503Z,83.40
2017-10-02T01:27:34.457Z,87.20
2017-10-02T01:28:34.418Z,90.90
2017-10-02T01:29:34.392Z,86.00
2017-10-02T01:30:34.350Z,92.80
2017-10-02T01:31:34.310Z,92.50
2017-10-02T01:32:34.281Z,92.10
2017-10-02T01:33:34.239Z,94.80
2017-10-02T01:34:34.201Z,97.60
2017-10-02T01:35:34.162Z,90.70
2017-10-02T01:36:34.129Z,86.50
2017-10-02T01:37:34.091Z,87.00
2017-10-02T01:38:34.070Z,94.30
2017-10-02T01:39:34.022Z,86.60
2017-10-02T01:40:33.984Z,94.20
2017-10-02T01:41:33.952Z,83.20
2017-10-02T01:42:33.911Z,83.10
2017-10-02T01:43:33.873Z,79.30
2017-10-02T01:44:33.838Z,86.00
2017-10-02T01:45:33.799Z,83.90
2017-10-02T01:46:33.764Z,82.90
2017-10-02T01:47:33.727Z,82.90
2017-10-02T01:48:33.696Z,86.70
2017-10-02T01:49:33.656Z,82.80
2017-10-02T01:50:33.618Z,83.00
2017-10-02T01:51:33.586Z,82.30
2017-10-02T01:52:33.554Z,85.50
2017-10-02T01:53:33.518Z,82.80
2017-10-02T01:54:33.472Z,90.00
2017-10-02T01:55:33.436Z,81.70
2017-10-02T01:56:33.400Z,91.40
2017-10-02T01:57:33.361Z,92.80
2017-10-02T01:58:33.342Z,91.00
2017-10-02T01:59:33.291Z,91.90
2017-10-02T02:00:33.253Z,94.40
2017-10-02T02:01:33.215Z,90.90
2017-10-02T02:02:33.181Z,87.00
2017-10-02T02:03:33.141Z,92.40
2017-10-02T02:04:33.107Z,92.70
2017-10-02T02:05:33.076Z,99.20
2017-10-02T02:06:33.037Z,93.10
2017-10-02T02:07:32.995Z,97.80
2017-10-02T02:08:32.961Z,94.50
2017-10-02T02:09:32.924Z,97.00
2017-10-02T02:10:32.885Z,90.10
2017-10-02T02:11:32.850Z,98.70
2017-10-02T02:12:32.815Z,101.40
2017-10-02T02:13:32.774Z,90.90
2017-10-02T02:14:32.751Z,94.00
2017-10-02T02:15:32.707Z,93.10
2017-10-02T02:16:32.666Z,92.20
2017-10-02T02:17:32.628Z,98.10
2017-10-02T02:18:32.593Z,94.80
2017-10-02T02:19:32.557Z,99.80
2017-10-02T02:20:32.520Z,96.60
2017-10-02T02:21:32.487Z,91.10
2017-10-02T02:22:32.450Z,95.80
2017-10-02T02:23:32.407Z,102.40
2017-10-02T02:24:32.373Z,101.60
2017-10-02T02:25:32.340Z,95.90
2017-10-02T02:26:32.298Z,98.40
2017-10-02T02:27:32.268Z,100.40
2017-10-02T02:28:32.231Z,100.90
2017-10-02T02:29:32.189Z,93.70
2017-10-02T02:30:32.152Z,97.00
2017-10-02T02:31:32.119Z,97.60
2017-10-02T02:32:32.083Z,99.70
2017-10-02T02:33:32.041Z,95.00
2017-10-02T02:34:32.007Z,98.40
2017-10-02T02:35:31.973Z,94.80
2017-10-02T02:36:31.941Z,105.80
2017-10-02T02:37:31.895Z,90.00
2017-10-02T02:38:31.860Z,92.70
2017-10-02T02:39:31.827Z,95.90
2017-10-02T02:40:31.786Z,98.60
2017-10-02T02:41:31.749Z,92.90
2017-10-02T02:42:31.714Z,90.00
2017-10-02T02:43:31.678Z,98.40
2017-10-02T02:44:31.647Z,92.60
2017-10-02T02:45:31.603Z,98.70
2017-10-02T02:46:31.567Z,97.10
2017-10-02T02:47:31.531Z,95.90
2017-10-02T02:48:31.495Z,95.20
2017-10-02T02:49:31.458Z,98.50
2017-10-02T02:50:31.419Z,97.80
2017-10-02T02:51:31.387Z,98.40
2017-10-02T02:52:31.350Z,86.40
2017-10-02T02:53:31.310Z,96.70
2017-10-02T02:54:31.272Z,102.30
2017-10-02T02:55:31.238Z,97.10
2017-10-02T02:56:31.200Z,94.50
2017-10-02T02:57:31.162Z,89.20
2017-10-02T02:58:31.127Z,90.50
2017-10-02T02:59:31.092Z,85.40
2017-10-02T03:00:31.052Z,95.00
2017-10-02T03:01:31.019Z,95.30
2017-10-02T03:02:30.977Z,92.70
2017-10-02T03:03:30.948Z,90.60
2017-10-02T03:04:30.908Z,85.80
2017-10-02T03:05:30.873Z,92.00
2017-10-02T03:06:30.833Z,86.10
2017-10-02T03:07:30.803Z,88.00
2017-10-02T03:08:30.767Z,90.30
2017-10-02T03:09:30.721Z,92.40
2017-10-02T03:10:30.682Z,83.30
2017-10-02T03:11:30.647Z,89.40
2017-10-02T03:12:30.612Z,89.20
2017-10-02T03:13:30.584Z,83.40
2017-10-02T03:14:30.538Z,80.60
2017-10-02T03:15:30.500Z,78.80
2017-10-02T03:16:30.462Z,77.70
2017-10-02T03:17:30.425Z,98.70
2017-10-02T03:18:30.389Z,87.50
2017-10-02T03:19:30.359Z,85.70
2017-10-02T03:20:30.324Z,87.40
2017-10-02T03:21:30.277Z,87.40
2017-10-02T03:22:30.242Z,90.90
2017-10-02T03:23:30.203Z,93.90
2017-10-02T03:24:30.168Z,93.90
2017-10-02T03:25:30.132Z,90.30
2017-10-02T03:26:30.095Z,86.60
2017-10-02T03:27:30.065Z,86.50
2017-10-02T03:28:30.022Z,82.40
2017-10-02T03:29:29.988Z,83.70
2017-10-02T03:30:29.951Z,84.50
2017-10-02T03:31:29.912Z,85.00
2017-10-02T03:32:29.871Z,82.40
2017-10-02T03:33:29.835Z,86.40
2017-10-02T03:34:29.804Z,81.90
2017-10-02T03:35:29.761Z,85.50
2017-10-02T03:36:29.728Z,79.30
2017-10-02T03:37:29.686Z,80.20
2017-10-02T03:38:29.653Z,89.60
2017-10-02T03:39:29.616Z,80.00
2017-10-02T03:40:29.586Z,90.80
2017-10-02T03:41:29.543Z,83.60
2017-10-02T03:42:29.506Z,87.60
2017-10-02T03:43:29.471Z,86.00
2017-10-02T03:44:29.432Z,82.20
2017-10-02T03:45:29.394Z,83.60
2017-10-02T03:46:29.371Z,91.40
2017-10-02T03:47:29.326Z,93.20
2017-10-02T03:48:29.285Z,94.30
2017-10-02T03:49:29.247Z,94.20
2017-10-02T03:50:29.210Z,94.40
2017-10-02T03:51:29.172Z,89.50
2017-10-02T03:52:29.136Z,88.00
2017-10-02T03:53:29.111Z,85.70
2017-10-02T03:54:29.066Z,86.60
2017-10-02T03:55:29.028Z,87.10
2017-10-02T03:56:28.992Z,88.70
2017-10-02T03:57:28.954Z,80.30
2017-10-02T03:58:28.914Z,81.50
2017-10-02T03:59:28.882Z,80.00
2017-10-02T04:00:28.847Z,77.70
2017-10-02T04:01:28.806Z,75.20
2017-10-02T04:02:28.767Z,74.80
2017-10-02T04:03:28.731Z,73.10
2017-10-02T04:04:28.694Z,72.30
2017-10-02T04:05:28.657Z,78.30
2017-10-02T04:06:28.621Z,72.80
2017-10-02T04:07:28.588Z,72.50
2017-10-02T04:08:28.550Z,72.40
2017-10-02T04:09:28.510Z,68.00
2017-10-02T04:10:28.474Z,75.30
2017-10-02T04:11:28.444Z,75.50
2017-10-02T04:12:28.402Z,76.40
2017-10-02T04:13:28.377Z,72.30
2017-10-02T04:14:28.332Z,72.10
2017-10-02T04:15:28.294Z,72.20
2017-10-02T04:16:28.255Z,72.20
2017-10-02T04:17:28.214Z,72.30
2017-10-02T04:18:28.204Z,68.00
2017-10-02T04:19:28.148Z,67.80
2017-10-02T04:20:28.106Z,73.70
2017-10-02T04:21:28.071Z,72.80
2017-10-02T04:22:28.033Z,69.40
2017-10-02T04:23:27.998Z,76.50
2017-10-02T04:24:27.959Z,65.90
2017-10-02T04:25:27.935Z,67.10
2017-10-02T04:26:27.887Z,67.30
2017-10-02T04:27:27.849Z,65.90
2017-10-02T04:28:27.815Z,64.90
2017-10-02T04:29:27.787Z,65.00
2017-10-02T04:30:27.747Z,62.00
2017-10-02T04:31:27.703Z,63.20
2017-10-02T04:32:27.665Z,63.50
2017-10-02T04:33:27.676Z,60.20
2017-10-02T04:34:27.590Z,55.70
2017-10-02T04:35:27.560Z,60.50
2017-10-02T04:36:27.519Z,57.50
2017-10-02T04:37:27.490Z,67.60
2017-10-02T04:38:27.475Z,63.30
2017-10-02T04:39:27.435Z,61.20
2017-10-02T04:40:27.388Z,63.40
2017-10-02T04:41:27.334Z,62.80
2017-10-02T04:42:27.300Z,58.80
2017-10-02T04:43:27.260Z,56.80
2017-10-02T04:44:27.230Z,56.90
2017-10-02T04:45:27.196Z,55.70
2017-10-02T04:46:27.149Z,55.40
2017-10-02T04:47:27.115Z,57.20
2017-10-02T04:48:27.108Z,55.70
2017-10-02T04:49:27.043Z,58.00
2017-10-02T04:50:27.015Z,57.80
2017-10-02T04:51:26.969Z,55.60
2017-10-02T04:52:26.938Z,57.60
2017-10-02T04:53:26.899Z,55.50
2017-10-02T04:54:26.893Z,53.10
2017-10-02T04:55:26.819Z,51.40
2017-10-02T04:56:26.789Z,53.90
2017-10-02T04:57:26.743Z,52.60
2017-10-02T04:58:26.737Z,51.10
2017-10-02T04:59:26.673Z,49.20
2017-10-02T05:00:26.635Z,45.00
2017-10-02T05:01:26.595Z,47.90
2017-10-02T05:02:26.564Z,47.20
2017-10-02T05:03:26.529Z,47.90
2017-10-02T05:04:26.491Z,47.50
2017-10-02T05:05:26.455Z,45.30
2017-10-02T05:06:26.415Z,44.90
2017-10-02T05:07:26.383Z,44.30
2017-10-02T05:08:26.341Z,43.30
2017-10-02T05:09:26.306Z,47.10
2017-10-02T05:10:26.273Z,41.90
2017-10-02T05:11:26.230Z,44.10
2017-10-02T05:12:26.195Z,38.60
2017-10-02T05:13:26.162Z,37.20
2017-10-02T05:14:26.120Z,39.30
2017-10-02T05:15:26.097Z,41.60
2017-10-02T05:16:26.051Z,39.50
2017-10-02T05:17:26.013Z,37.10
2017-10-02T05:18:25.975Z,42.40
2017-10-02T05:19:25.935Z,43.30
2017-10-02T05:20:25.902Z,38.20
2017-10-02T05:21:25.865Z,37.50
2017-10-02T05:22:25.830Z,39.00
2017-10-02T05:23:25.792Z,40.00
2017-10-02T05:24:25.760Z,35.90
2017-10-02T05:25:25.727Z,39.50
2017-10-02T05:26:25.679Z,36.40
2017-10-02T05:27:25.642Z,36.80
2017-10-02T05:28:25.606Z,35.90
2017-10-02T05:29:25.572Z,35.80
2017-10-02T05:30:25.536Z,34.60
2017-10-02T05:31:25.499Z,39.30
2017-10-02T05:32:25.460Z,31.30
2017-10-02T05:33:25.424Z,32.20
2017-10-02T05:34:25.384Z,33.10
2017-10-02T05:35:25.349Z,31.80
2017-10-02T05:36:25.315Z,29.40
2017-10-02T05:37:25.279Z,34.00
2017-10-02T05:38:25.246Z,30.80
2017-10-02T05:39:25.207Z,28.60
2017-10-02T05:40:25.173Z,27.10
2017-10-02T05:41:25.133Z,26.80
2017-10-02T05:42:25.102Z,26.30
2017-10-02T05:43:25.060Z,25.30
2017-10-02T05:44:25.026Z,30.50
2017-10-02T05:45:24.990Z,28.40
2017-10-02T05:46:24.954Z,25.80
2017-10-02T05:47:24.921Z,24.10
2017-10-02T05:48:24.889Z,24.80
2017-10-02T05:49:24.849Z,26.40
2017-10-02T05:50:24.817Z,27.10
2017-10-02T05:51:24.779Z,25.50
2017-10-02T05:52:24.743Z,24.80
2017-10-02T05:53:24.714Z,23.00
2017-10-02T05:54:24.682Z,24.70
2017-10-02T05:55:24.649Z,25.00
2017-10-02T05:56:24.652Z,24.80
2017-10-02T05:57:24.573Z,27.80
2017-10-02T05:58:24.543Z,24.30
2017-10-02T05:59:24.505Z,26.10
2017-10-02T06:00:24.463Z,24.60
2017-10-02T06:01:24.429Z,24.90
2017-10-02T06:02:24.391Z,26.10
2017-10-02T06:03:24.358Z,25.10
2017-10-02T06:04:24.324Z,29.70
2017-10-02T06:05:24.285Z,28.40
2017-10-02T06:06:24.255Z,25.20
2017-10-02T06:07:24.215Z,24.60
2017-10-02T06:08:24.180Z,26.60
2017-10-02T06:09:24.142Z,24.40
2017-10-02T06:10:24.113Z,26.70
2017-10-02T06:11:24.073Z,27.70
2017-10-02T06:12:24.053Z,26.00
2017-10-02T06:13:23.999Z,22.80
2017-10-02T06:14:23.973Z,22.70
2017-10-02T06:15:23.930Z,26.10
2017-10-02T06:16:23.898Z,23.50
2017-10-02T06:17:23.861Z,28.30
2017-10-02T06:18:23.825Z,24.30
2017-10-02T06:19:23.788Z,23.60
2017-10-02T06:20:23.755Z,27.70
2017-10-02T06:21:23.714Z,24.30
2017-10-02T06:22:23.685Z,26.70
2017-10-02T06:23:23.645Z,26.20
2017-10-02T06:24:23.611Z,23.30
2017-10-02T06:25:23.576Z,23.10
2017-10-02T06:26:23.538Z,24.50
2017-10-02T06:27:23.505Z,24.80
2017-10-02T06:28:23.476Z,27.50
2017-10-02T06:29:23.434Z,23.70
2017-10-02T06:30:23.397Z,27.20
2017-10-02T06:31:23.361Z,25.50
2017-10-02T06:32:23.325Z,25.80
2017-10-02T06:33:23.290Z,24.10
2017-10-02T06:34:23.261Z,26.50
2017-10-02T06:35:23.216Z,24.70
2017-10-02T06:36:23.185Z,23.30
2017-10-02T06:37:23.154Z,24.20
2017-10-02T06:38:23.111Z,22.50
2017-10-02T06:39:23.079Z,24.70
2017-10-02T06:40:23.066Z,24.00
2017-10-02T06:41:23.008Z,23.20
2017-10-02T06:42:22.975Z,25.30
2017-10-02T06:43:22.935Z,24.10
2017-10-02T06:44:22.902Z,25.40
2017-10-02T06:45:22.861Z,28.60
2017-10-02T06:46:22.831Z,22.20
2017-10-02T06:47:22.791Z,21.00
2017-10-02T06:48:22.759Z,23.60
2017-10-02T06:49:22.723Z,21.40
2017-10-02T06:50:22.685Z,23.20
2017-10-02T06:51:22.654Z,23.60
2017-10-02T06:52:22.618Z,21.80
2017-10-02T06:53:22.598Z,20.00
2017-10-02T06:54:22.542Z,23.60
2017-10-02T06:55:22.522Z,20.70
2017-10-02T06:56:22.472Z,20.30
2017-10-02T06:57:22.445Z,21.00
2017-10-02T06:58:22.403Z,19.30
2017-10-02T06:59:22.380Z,19.40
2017-10-02T07:00:22.347Z,18.80
2017-10-02T07:01:22.317Z,21.30
2017-10-02T07:02:22.262Z,20.40
2017-10-02T07:03:22.245Z,21.30
2017-10-02T07:04:22.194Z,23.20
2017-10-02T07:05:22.178Z,21.00
2017-10-02T07:06:22.126Z,23.70
2017-10-02T07:07:22.096Z,18.60
2017-10-02T07:08:22.069Z,20.30
2017-10-02T07:09:22.027Z,18.60
2017-10-02T07:10:21.983Z,19.00
2017-10-02T07:11:21.951Z,22.40
2017-10-02T07:12:21.919Z,21.40
2017-10-02T07:13:21.875Z,20.70
2017-10-02T07:14:21.856Z,21.80
2017-10-02T07:15:21.833Z,22.80
2017-10-02T07:16:21.789Z,18.60
2017-10-02T07:17:21.745Z,19.80
2017-10-02T07:18:21.705Z,21.50
2017-10-02T07:19:21.668Z,20.00
2017-10-02T07:20:21.635Z,20.20
2017-10-02T07:21:21.623Z,18.00
2017-10-02T07:22:21.567Z,19.20
2017-10-02T07:23:21.532Z,21.10
2017-10-02T07:24:21.509Z,23.60
2017-10-02T07:25:21.459Z,18.80
2017-10-02T07:26:21.422Z,19.90
2017-10-02T07:27:21.390Z,16.50
2017-10-02T07:28:21.352Z,19.20
2017-10-02T07:29:21.319Z,21.10
2017-10-02T07:30:21.285Z,17.40
2017-10-02T07:31:21.246Z,18.50
2017-10-02T07:32:21.218Z,19.20
2017-10-02T07:33:21.178Z,19.40
2017-10-02T07:34:21.139Z,22.60
2017-10-02T07:35:21.115Z,18.30
2017-10-02T07:36:21.076Z,17.20
2017-10-02T07:37:21.046Z,18.10
2017-10-02T07:38:21.007Z,17.20
2017-10-02T07:39:20.968Z,18.40
2017-10-02T07:40:20.937Z,15.90
2017-10-02T07:41:20.905Z,19.60
2017-10-02T07:42:20.871Z,19.30
2017-10-02T07:43:20.832Z,17.00
2017-10-02T07:44:20.799Z,22.10
2017-10-02T07:45:20.767Z,18.00
2017-10-02T07:46:20.736Z,19.50
2017-10-02T07:47:20.695Z,19.00
2017-10-02T07:48:20.659Z,15.70
2017-10-02T07:49:20.643Z,18.30
2017-10-02T07:50:20.596Z,17.10
2017-10-02T07:51:20.562Z,15.50
2017-10-02T07:52:20.521Z,15.90
2017-10-02T07:53:20.490Z,18.80
2017-10-02T07:54:20.460Z,19.30
2017-10-02T07:55:20.420Z,15.40
2017-10-02T07:56:20.391Z,18.10
2017-10-02T07:57:20.354Z,17.10
2017-10-02T07:58:20.316Z,16.90
2017-10-02T07:59:20.285Z,17.50
2017-10-02T08:00:20.271Z,15.50
2017-10-02T08:01:20.216Z,15.10
2017-10-02T08:02:20.177Z,17.60
2017-10-02T08:03:20.152Z,15.50
2017-10-02T08:04:20.112Z,18.30
2017-10-02T08:05:20.076Z,18.10
2017-10-02T08:06:20.042Z,15.60
2017-10-02T08:07:20.008Z,15.30
2017-10-02T08:08:19.975Z,14.50
2017-10-02T08:09:19.947Z,14.40
2017-10-02T08:10:19.907Z,14.90
2017-10-02T08:11:19.871Z,13.20
2017-10-02T08:12:19.839Z,16.00
2017-10-02T08:13:19.815Z,14.00
2017-10-02T08:14:19.769Z,14.50
2017-10-02T08:15:19.736Z,16.10
2017-10-02T08:16:19.703Z,14.10
2017-10-02T08:17:19.669Z,15.30
2017-10-02T08:18:19.634Z,15.70
2017-10-02T08:19:19.604Z,15.10
2017-10-02T08:20:19.568Z,15.40
2017-10-02T08:21:19.535Z,12.80
2017-10-02T08:22:19.502Z,13.40
2017-10-02T08:23:19.474Z,13.10
2017-10-02T08:24:19.431Z,19.30
2017-10-02T08:25:19.399Z,13.40
2017-10-02T08:26:19.366Z,13.40
2017-10-02T08:27:19.332Z,13.20
2017-10-02T08:28:19.300Z,13.80
2017-10-02T08:29:19.271Z,12.90
2017-10-02T08:30:19.231Z,21.40
2017-10-02T08:31:19.202Z,14.60
2017-10-02T08:32:19.167Z,13.50
2017-10-02T08:33:19.130Z,12.50
2017-10-02T08:34:19.098Z,15.00
2017-10-02T08:35:19.070Z,13.70
2017-10-02T08:36:19.030Z,12.70
2017-10-02T08:37:19.001Z,13.60
2017-10-02T08:38:18.970Z,12.60
2017-10-02T08:39:18.939Z,11.20
2017-10-02T08:40:18.900Z,12.20
2017-10-02T08:41:18.867Z,14.10
2017-10-02T08:42:18.834Z,13.70
2017-10-02T08:43:18.807Z,12.20
2017-10-02T08:44:18.765Z,10.90
2017-10-02T08:45:18.734Z,10.50
2017-10-02T08:46:18.706Z,11.40
2017-10-02T08:47:18.674Z,12.30
2017-10-02T08:48:18.630Z,11.80
2017-10-02T08:49:18.610Z,11.30
2017-10-02T08:50:18.570Z,13.20
2017-10-02T08:51:18.536Z,13.30
2017-10-02T08:52:18.500Z,12.90
2017-10-02T08:53:18.470Z,10.10
2017-10-02T08:54:18.433Z,10.80
2017-10-02T08:55:18.398Z,11.80
2017-10-02T08:56:18.372Z,14.80
2017-10-02T08:57:18.333Z,12.90
2017-10-02T08:58:18.301Z,11.10
2017-10-02T08:59:18.275Z,12.50
2017-10-02T09:00:18.235Z,12.80
2017-10-02T09:01:18.200Z,13.40
2017-10-02T09:02:18.165Z,11.80
2017-10-02T09:03:18.144Z,14.60
2017-10-02T09:04:18.103Z,11.60
2017-10-02T09:05:18.069Z,9.90
2017-10-02T09:06:18.040Z,10.60
2017-10-02T09:07:18.016Z,11.70
2017-10-02T09:08:17.974Z,14.20
2017-10-02T09:09:17.938Z,10.90
2017-10-02T09:10:17.909Z,10.70
2017-10-02T09:11:17.891Z,11.70
2017-10-02T09:12:17.848Z,8.30
2017-10-02T09:13:17.808Z,12.60
2017-10-02T09:14:17.774Z,9.10
2017-10-02T09:15:17.740Z,10.30
2017-10-02T09:16:17.716Z,11.40
2017-10-02T09:17:17.678Z,11.60
2017-10-02T09:18:17.651Z,12.80
2017-10-02T09:19:17.611Z,12.00
2017-10-02T09:20:17.579Z,12.50
2017-10-02T09:21:17.547Z,9.90
2017-10-02T09:22:17.513Z,10.10
2017-10-02T09:23:17.483Z,8.50
2017-10-02T09:24:17.449Z,13.40
2017-10-02T09:25:17.420Z,12.20
2017-10-02T09:26:17.381Z,10.60
2017-10-02T09:27:17.357Z,10.40
2017-10-02T09:28:17.317Z,13.50
2017-10-02T09:29:17.289Z,9.60
2017-10-02T09:30:17.254Z,9.80
2017-10-02T09:31:17.226Z,11.80
2017-10-02T09:32:17.190Z,10.30
2017-10-02T09:33:17.152Z,8.70
2017-10-02T09:34:17.122Z,11.70
2017-10-02T09:35:17.104Z,12.60
2017-10-02T09:36:17.066Z,11.00
2017-10-02T09:37:17.027Z,10.20
2017-10-02T09:38:17.002Z,8.10
2017-10-02T09:39:16.967Z,7.70
2017-10-02T09:40:16.927Z,10.00
2017-10-02T09:41:16.898Z,11.20
2017-10-02T09:42:16.866Z,10.80
2017-10-02T09:43:16.844Z,11.40
2017-10-02T09:44:16.800Z,10.40
2017-10-02T09:45:16.766Z,9.90
2017-10-02T09:46:16.735Z,8.00
2017-10-02T09:47:16.721Z,7.90
2017-10-02T09:48:16.676Z,10.00
2017-10-02T09:49:16.642Z,8.70
2017-10-02T09:50:16.635Z,8.40
2017-10-02T09:51:16.588Z,10.20
2017-10-02T09:52:16.547Z,8.20
2017-10-02T09:53:16.511Z,6.80
2017-10-02T09:54:16.475Z,6.90
2017-10-02T09:55:16.452Z,9.30
2017-10-02T09:56:16.414Z,8.10
2017-10-02T09:57:16.389Z,7.90
2017-10-02T09:58:16.376Z,8.50
2017-10-02T09:59:16.348Z,7.50
2017-10-02T10:00:16.290Z,8.80
2017-10-02T10:01:16.251Z,8.40
2017-10-02T10:02:16.220Z,8.80
2017-10-02T10:03:16.187Z,11.80
2017-10-02T10:04:16.156Z,10.70
2017-10-02T10:05:16.122Z,8.50
2017-10-02T10:06:16.098Z,7.50
2017-10-02T10:07:16.086Z,13.30
2017-10-02T10:08:16.035Z,9.30
2017-10-02T10:09:16.010Z,8.30
2017-10-02T10:10:15.962Z,7.80
2017-10-02T10:11:15.933Z,9.50
2017-10-02T10:12:15.904Z,7.70
2017-10-02T10:13:15.868Z,8.10
2017-10-02T10:14:15.836Z,10.70
2017-10-02T10:15:15.806Z,7.20
2017-10-02T10:16:15.796Z,8.40
2017-10-02T10:17:15.741Z,7.30
2017-10-02T10:18:15.707Z,8.30
2017-10-02T10:19:15.677Z,11.60
2017-10-02T10:20:15.645Z,8.50
2017-10-02T10:21:15.622Z,8.00
2017-10-02T10:22:15.585Z,7.90
2017-10-02T10:23:15.549Z,11.10
2017-10-02T10:24:15.522Z,6.60
2017-10-02T10:25:15.482Z,8.90
2017-10-02T10:26:15.454Z,8.10
2017-10-02T10:27:15.455Z,7.90
2017-10-02T10:28:15.403Z,8.70
2017-10-02T10:29:15.358Z,13.20
2017-10-02T10:30:15.329Z,7.60
2017-10-02T10:31:15.327Z,7.90
2017-10-02T10:32:15.270Z,7.70
2017-10-02T10:33:15.239Z,8.40
2017-10-02T10:34:15.209Z,6.80
2017-10-02T10:35:15.181Z,8.40
2017-10-02T10:36:15.148Z,7.90
2017-10-02T10:37:15.108Z,7.30
2017-10-02T10:38:15.082Z,7.00
2017-10-02T10:39:15.045Z,8.00
2017-10-02T10:40:15.017Z,7.60
2017-10-02T10:41:14.982Z,12.50
2017-10-02T10:42:14.962Z,7.70
2017-10-02T10:43:14.916Z,9.20
2017-10-02T10:44:14.892Z,9.60
2017-10-02T10:45:14.891Z,9.50
2017-10-02T10:46:14.820Z,7.10
2017-10-02T10:47:14.791Z,7.30
2017-10-02T10:48:14.765Z,7.70
2017-10-02T10:49:14.729Z,9.20
2017-10-02T10:50:14.698Z,9.30
2017-10-02T10:51:14.662Z,9.50
2017-10-02T10:52:14.631Z,8.90
2017-10-02T10:53:14.599Z,12.60
2017-10-02T10:54:14.565Z,10.00
2017-10-02T10:55:14.533Z,8.80
2017-10-02T10:56:14.504Z,6.80
2017-10-02T10:57:14.474Z,10.50
2017-10-02T10:58:14.440Z,11.10
2017-10-02T10:59:14.419Z,10.00
2017-10-02T11:00:14.375Z,11.50
2017-10-02T11:01:14.351Z,8.20
2017-10-02T11:02:14.309Z,8.50
2017-10-02T11:03:14.277Z,6.90
2017-10-02T11:04:14.254Z,8.80
2017-10-02T11:05:14.221Z,8.60
2017-10-02T11:06:14.184Z,9.80
2017-10-02T11:07:14.159Z,8.70
2017-10-02T11:08:14.115Z,7.50
2017-10-02T11:09:14.085Z,8.80
2017-10-02T11:10:14.052Z,8.00
2017-10-02T11:11:14.021Z,10.10
2017-10-02T11:12:13.995Z,10.30
2017-10-02T11:13:13.964Z,11.10
2017-10-02T11:14:13.926Z,9.20
2017-10-02T11:15:13.899Z,11.80
2017-10-02T11:16:13.866Z,11.00
2017-10-02T11:17:13.834Z,10.10
2017-10-02T11:18:13.792Z,12.80
2017-10-02T11:19:13.767Z,10.30
2017-10-02T11:20:13.730Z,11.00
2017-10-02T11:21:13.689Z,13.40
2017-10-02T11:22:13.685Z,10.60
2017-10-02T11:23:13.644Z,12.80
2017-10-02T11:24:13.604Z,13.30
2017-10-02T11:25:13.562Z,11.40
2017-10-02T11:26:13.530Z,11.60
2017-10-02T11:27:13.498Z,10.10
2017-10-02T11:28:13.465Z,17.40
2017-10-02T11:29:13.433Z,11.30
2017-10-02T11:30:13.413Z,11.20
2017-10-02T11:31:13.368Z,11.00
2017-10-02T11:32:13.334Z,11.40
2017-10-02T11:33:13.334Z,14.10
2017-10-02T11:34:13.269Z,13.30
2017-10-02T11:35:13.237Z,15.10
2017-10-02T11:36:13.205Z,15.50
2017-10-02T11:37:13.169Z,11.40
2017-10-02T11:38:13.135Z,14.30
2017-10-02T11:39:13.102Z,12.40
2017-10-02T11:40:13.079Z,12.60
2017-10-02T11:41:13.036Z,15.00
2017-10-02T11:42:13.002Z,13.00
2017-10-02T11:43:12.970Z,15.00
2017-10-02T11:44:12.940Z,13.90
2017-10-02T11:45:12.906Z,12.90
2017-10-02T11:46:12.874Z,13.30
2017-10-02T11:47:12.841Z,12.70
2017-10-02T11:48:12.809Z,14.80
2017-10-02T11:49:12.771Z,14.20
2017-10-02T11:50:12.738Z,14.30
2017-10-02T11:51:12.702Z,14.20
2017-10-02T11:52:12.678Z,12.90
2017-10-02T11:53:12.638Z,13.80
2017-10-02T11:54:12.619Z,14.40
2017-10-02T11:55:12.577Z,16.50
2017-10-02T11:56:12.541Z,17.00
2017-10-02T11:57:12.509Z,14.10
2017-10-02T11:58:12.471Z,11.20
2017-10-02T11:59:12.436Z,12.00
2017-10-02T12:00:12.409Z,15.90
2017-10-02T12:01:12.377Z,17.10
2017-10-02T12:02:12.339Z,16.00
2017-10-02T12:03:12.306Z,14.60
2017-10-02T12:04:12.293Z,17.40
2017-10-02T12:05:12.232Z,13.30
2017-10-02T12:06:12.220Z,14.30
2017-10-02T12:07:12.167Z,17.70
2017-10-02T12:08:12.182Z,17.60
2017-10-02T12:09:12.106Z,17.30
2017-10-02T12:10:12.067Z,13.20
2017-10-02T12:11:12.035Z,12.20
2017-10-02T12:12:11.997Z,16.00
2017-10-02T12:13:11.998Z,14.60
2017-10-02T12:14:11.939Z,16.30
2017-10-02T12:15:11.911Z,18.00
2017-10-02T12:16:11.864Z,14.80
2017-10-02T12:17:11.871Z,15.60
2017-10-02T12:18:11.792Z,16.20
2017-10-02T12:19:11.772Z,17.10
2017-10-02T12:20:11.723Z,14.60
2017-10-02T12:21:11.691Z,14.30
2017-10-02T12:22:11.659Z,17.60
2017-10-02T12:23:11.670Z,16.70
2017-10-02T12:24:11.620Z,16.70
2017-10-02T12:25:11.588Z,15.10
2017-10-02T12:26:11.522Z,16.50
2017-10-02T12:27:11.509Z,16.40
2017-10-02T12:28:11.457Z,14.20
2017-10-02T12:29:11.423Z,16.00
2017-10-02T12:30:11.382Z,15.40
2017-10-02T12:31:11.356Z,17.90
2017-10-02T12:32:11.320Z,17.30
2017-10-02T12:33:11.304Z,13.20
2017-10-02T12:34:11.272Z,15.30
2017-10-02T12:35:11.260Z,14.10
2017-10-02T12:36:11.493Z,13.90
2017-10-02T12:37:11.148Z,17.30
2017-10-02T12:38:11.112Z,16.00
2017-10-02T12:39:11.083Z,14.60
2017-10-02T12:40:11.045Z,15.80
2017-10-02T12:41:11.012Z,17.10
2017-10-02T12:44:42.506Z,17.80
2017-10-02T12:45:42.456Z,14.60
2017-10-02T12:47:35.292Z,13.30
2017-10-02T12:48:35.228Z,13.50
2017-10-02T12:50:28.077Z,16.30
2017-10-02T12:51:28.033Z,16.70
2017-10-02T12:53:20.865Z,19.40
2017-10-02T12:54:20.821Z,14.60
2017-10-02T12:56:13.663Z,15.00
2017-10-02T12:57:13.610Z,15.60
2017-10-02T12:59:06.446Z,13.80
2017-10-02T13:00:06.397Z,11.40
2017-10-02T13:01:59.292Z,12.80
2017-10-02T13:02:59.218Z,12.70